sensor_id;sensor_type;location;lat;lon;timestamp;temperature;humidity
2867;DHT22;1441;48.886;8.728;2023-03-23T00:01:14;14.30;72.10
2867;DHT22;1441;48.886;8.728;2023-03-23T00:03:41;14.30;72.00
2867;DHT22;1441;48.886;8.728;2023-03-23T00:06:07;14.30;72.40
2867;DHT22;1441;48.886;8.728;2023-03-23T00:08:42;14.30;72.40
2867;DHT22;1441;48.886;8.728;2023-03-23T00:11:12;14.30;71.70
2867;DHT22;1441;48.886;8.728;2023-03-23T00:13:41;14.30;72.40
2867;DHT22;1441;48.886;8.728;2023-03-23T00:16:07;14.30;72.80
2867;DHT22;1441;48.886;8.728;2023-03-23T00:18:50;14.30;72.30
2867;DHT22;1441;48.886;8.728;2023-03-23T00:21:20;14.30;72.20
2867;DHT22;1441;48.886;8.728;2023-03-23T00:23:46;14.20;73.20
2867;DHT22;1441;48.886;8.728;2023-03-23T00:26:12;14.20;73.10
2867;DHT22;1441;48.886;8.728;2023-03-23T00:28:38;14.20;72.80
2867;DHT22;1441;48.886;8.728;2023-03-23T00:31:06;14.30;72.00
2867;DHT22;1441;48.886;8.728;2023-03-23T00:33:33;14.30;72.20
2867;DHT22;1441;48.886;8.728;2023-03-23T00:36:10;14.40;71.60
2867;DHT22;1441;48.886;8.728;2023-03-23T00:38:37;14.40;71.40
2867;DHT22;1441;48.886;8.728;2023-03-23T00:41:03;14.50;71.80
2867;DHT22;1441;48.886;8.728;2023-03-23T00:43:29;14.40;71.40
2867;DHT22;1441;48.886;8.728;2023-03-23T00:45:56;14.70;71.10
2867;DHT22;1441;48.886;8.728;2023-03-23T00:48:23;14.60;71.40
2867;DHT22;1441;48.886;8.728;2023-03-23T00:50:50;14.60;71.20
2867;DHT22;1441;48.886;8.728;2023-03-23T00:53:17;14.70;71.00
2867;DHT22;1441;48.886;8.728;2023-03-23T00:55:44;14.70;70.70
2867;DHT22;1441;48.886;8.728;2023-03-23T00:58:11;14.70;71.10
2867;DHT22;1441;48.886;8.728;2023-03-23T01:00:38;14.80;70.80
2867;DHT22;1441;48.886;8.728;2023-03-23T01:03:04;14.80;71.10
2867;DHT22;1441;48.886;8.728;2023-03-23T01:05:33;14.90;70.90
2867;DHT22;1441;48.886;8.728;2023-03-23T01:07:59;14.80;71.30
2867;DHT22;1441;48.886;8.728;2023-03-23T01:10:25;14.70;71.60
2867;DHT22;1441;48.886;8.728;2023-03-23T01:12:52;14.60;72.50
2867;DHT22;1441;48.886;8.728;2023-03-23T01:15:18;14.50;72.40
2867;DHT22;1441;48.886;8.728;2023-03-23T01:17:44;14.60;72.00
2867;DHT22;1441;48.886;8.728;2023-03-23T01:20:12;14.50;72.60
2867;DHT22;1441;48.886;8.728;2023-03-23T01:22:38;14.60;72.00
2867;DHT22;1441;48.886;8.728;2023-03-23T01:25:05;14.50;72.20
2867;DHT22;1441;48.886;8.728;2023-03-23T01:27:31;14.50;72.60
2867;DHT22;1441;48.886;8.728;2023-03-23T01:29:57;14.50;72.60
2867;DHT22;1441;48.886;8.728;2023-03-23T01:32:23;14.70;71.90
2867;DHT22;1441;48.886;8.728;2023-03-23T01:34:48;14.60;72.60
2867;DHT22;1441;48.886;8.728;2023-03-23T01:37:14;14.40;72.70
2867;DHT22;1441;48.886;8.728;2023-03-23T01:39:41;14.40;72.80
2867;DHT22;1441;48.886;8.728;2023-03-23T01:42:08;14.60;72.40
2867;DHT22;1441;48.886;8.728;2023-03-23T01:47:00;14.60;72.70
2867;DHT22;1441;48.886;8.728;2023-03-23T01:49:29;14.50;72.90
2867;DHT22;1441;48.886;8.728;2023-03-23T01:52:01;14.50;73.00
2867;DHT22;1441;48.886;8.728;2023-03-23T01:54:28;14.50;73.20
2867;DHT22;1441;48.886;8.728;2023-03-23T01:57:04;14.40;73.60
2867;DHT22;1441;48.886;8.728;2023-03-23T01:59:33;14.30;74.10
2867;DHT22;1441;48.886;8.728;2023-03-23T02:02:00;14.30;74.40
2867;DHT22;1441;48.886;8.728;2023-03-23T02:04:27;14.20;74.70
2867;DHT22;1441;48.886;8.728;2023-03-23T02:06:54;14.10;75.00
2867;DHT22;1441;48.886;8.728;2023-03-23T02:09:21;14.00;75.10
2867;DHT22;1441;48.886;8.728;2023-03-23T02:11:48;14.00;75.20
2867;DHT22;1441;48.886;8.728;2023-03-23T02:14:15;14.00;75.50
2867;DHT22;1441;48.886;8.728;2023-03-23T02:19:29;14.00;75.70
2867;DHT22;1441;48.886;8.728;2023-03-23T02:27:52;13.70;77.20
2867;DHT22;1441;48.886;8.728;2023-03-23T02:41:27;13.40;78.70
2867;DHT22;1441;48.886;8.728;2023-03-23T02:43:53;13.30;78.90
2867;DHT22;1441;48.886;8.728;2023-03-23T02:46:22;13.30;79.00
2867;DHT22;1441;48.886;8.728;2023-03-23T02:48:49;13.30;78.90
2867;DHT22;1441;48.886;8.728;2023-03-23T02:51:19;13.30;78.90
2867;DHT22;1441;48.886;8.728;2023-03-23T02:53:46;13.40;78.90
2867;DHT22;1441;48.886;8.728;2023-03-23T02:56:13;13.40;78.80
2867;DHT22;1441;48.886;8.728;2023-03-23T02:58:39;13.40;78.80
2867;DHT22;1441;48.886;8.728;2023-03-23T03:03:42;13.40;78.90
2867;DHT22;1441;48.886;8.728;2023-03-23T03:06:25;13.40;78.70
2867;DHT22;1441;48.886;8.728;2023-03-23T03:11:29;13.50;78.50
2867;DHT22;1441;48.886;8.728;2023-03-23T03:14:04;13.50;78.60
2867;DHT22;1441;48.886;8.728;2023-03-23T03:16:35;13.50;78.50
2867;DHT22;1441;48.886;8.728;2023-03-23T03:19:06;13.50;78.60
2867;DHT22;1441;48.886;8.728;2023-03-23T03:21:39;13.40;78.70
2867;DHT22;1441;48.886;8.728;2023-03-23T03:24:07;13.40;78.70
2867;DHT22;1441;48.886;8.728;2023-03-23T03:26:37;13.30;79.00
2867;DHT22;1441;48.886;8.728;2023-03-23T03:29:05;13.30;79.00
2867;DHT22;1441;48.886;8.728;2023-03-23T03:31:38;13.40;79.30
2867;DHT22;1441;48.886;8.728;2023-03-23T03:34:05;13.40;79.30
2867;DHT22;1441;48.886;8.728;2023-03-23T03:36:33;13.40;79.10
2867;DHT22;1441;48.886;8.728;2023-03-23T03:39:07;13.50;78.60
2867;DHT22;1441;48.886;8.728;2023-03-23T03:41:34;13.50;78.60
2867;DHT22;1441;48.886;8.728;2023-03-23T03:44:01;13.50;78.50
2867;DHT22;1441;48.886;8.728;2023-03-23T03:46:27;13.50;78.50
2867;DHT22;1441;48.886;8.728;2023-03-23T03:48:55;13.60;78.20
2867;DHT22;1441;48.886;8.728;2023-03-23T03:51:22;13.70;78.00
2867;DHT22;1441;48.886;8.728;2023-03-23T03:53:48;13.70;77.80
2867;DHT22;1441;48.886;8.728;2023-03-23T03:56:13;13.70;78.40
2867;DHT22;1441;48.886;8.728;2023-03-23T03:58:39;13.70;78.20
2867;DHT22;1441;48.886;8.728;2023-03-23T04:01:08;13.70;77.60
2867;DHT22;1441;48.886;8.728;2023-03-23T04:03:36;13.70;77.70
2867;DHT22;1441;48.886;8.728;2023-03-23T04:06:02;13.70;77.70
2867;DHT22;1441;48.886;8.728;2023-03-23T04:08:29;13.70;77.70
2867;DHT22;1441;48.886;8.728;2023-03-23T04:10:55;13.70;77.90
2867;DHT22;1441;48.886;8.728;2023-03-23T04:13:21;13.70;78.00
2867;DHT22;1441;48.886;8.728;2023-03-23T04:15:47;13.70;78.00
2867;DHT22;1441;48.886;8.728;2023-03-23T04:18:14;13.80;77.80
2867;DHT22;1441;48.886;8.728;2023-03-23T04:20:41;13.80;77.70
2867;DHT22;1441;48.886;8.728;2023-03-23T04:23:08;13.80;77.40
2867;DHT22;1441;48.886;8.728;2023-03-23T04:25:34;13.80;77.50
2867;DHT22;1441;48.886;8.728;2023-03-23T04:28:01;13.80;77.40
2867;DHT22;1441;48.886;8.728;2023-03-23T04:30:27;13.80;77.20
2867;DHT22;1441;48.886;8.728;2023-03-23T04:32:54;13.90;76.70
2867;DHT22;1441;48.886;8.728;2023-03-23T04:35:23;14.00;76.40
2867;DHT22;1441;48.886;8.728;2023-03-23T04:37:50;14.10;76.40
2867;DHT22;1441;48.886;8.728;2023-03-23T04:40:17;14.10;76.20
2867;DHT22;1441;48.886;8.728;2023-03-23T04:42:44;14.10;76.20
2867;DHT22;1441;48.886;8.728;2023-03-23T04:45:18;14.10;76.40
2867;DHT22;1441;48.886;8.728;2023-03-23T04:47:47;14.10;76.40
2867;DHT22;1441;48.886;8.728;2023-03-23T04:50:20;14.10;75.90
2867;DHT22;1441;48.886;8.728;2023-03-23T04:52:47;14.20;75.90
2867;DHT22;1441;48.886;8.728;2023-03-23T04:55:13;14.20;75.70
2867;DHT22;1441;48.886;8.728;2023-03-23T04:57:39;14.20;75.70
2867;DHT22;1441;48.886;8.728;2023-03-23T05:00:06;14.30;75.60
2867;DHT22;1441;48.886;8.728;2023-03-23T05:02:38;14.30;75.40
2867;DHT22;1441;48.886;8.728;2023-03-23T05:05:08;14.40;74.90
2867;DHT22;1441;48.886;8.728;2023-03-23T05:07:36;14.50;74.50
2867;DHT22;1441;48.886;8.728;2023-03-23T05:10:03;14.60;74.50
2867;DHT22;1441;48.886;8.728;2023-03-23T05:12:28;14.50;74.80
2867;DHT22;1441;48.886;8.728;2023-03-23T05:14:54;14.50;75.00
2867;DHT22;1441;48.886;8.728;2023-03-23T05:17:20;14.60;75.10
2867;DHT22;1441;48.886;8.728;2023-03-23T05:19:45;14.50;75.30
2867;DHT22;1441;48.886;8.728;2023-03-23T05:22:14;14.40;75.60
2867;DHT22;1441;48.886;8.728;2023-03-23T05:24:40;14.30;76.30
2867;DHT22;1441;48.886;8.728;2023-03-23T05:27:05;14.20;76.50
2867;DHT22;1441;48.886;8.728;2023-03-23T05:29:33;14.30;76.30
2867;DHT22;1441;48.886;8.728;2023-03-23T05:32:01;14.30;76.50
2867;DHT22;1441;48.886;8.728;2023-03-23T05:34:28;14.30;76.50
2867;DHT22;1441;48.886;8.728;2023-03-23T05:36:55;14.30;76.40
2867;DHT22;1441;48.886;8.728;2023-03-23T05:39:20;14.30;76.90
2867;DHT22;1441;48.886;8.728;2023-03-23T05:41:46;14.20;77.70
2867;DHT22;1441;48.886;8.728;2023-03-23T05:44:12;14.20;78.50
2867;DHT22;1441;48.886;8.728;2023-03-23T05:46:39;14.20;78.90
2867;DHT22;1441;48.886;8.728;2023-03-23T05:49:04;14.20;79.30
2867;DHT22;1441;48.886;8.728;2023-03-23T05:51:30;14.20;79.60
2867;DHT22;1441;48.886;8.728;2023-03-23T05:53:56;14.20;80.10
2867;DHT22;1441;48.886;8.728;2023-03-23T05:56:21;14.10;80.30
2867;DHT22;1441;48.886;8.728;2023-03-23T05:58:47;14.10;80.60
2867;DHT22;1441;48.886;8.728;2023-03-23T06:01:12;14.10;81.00
2867;DHT22;1441;48.886;8.728;2023-03-23T06:03:41;14.00;81.70
2867;DHT22;1441;48.886;8.728;2023-03-23T06:06:09;13.70;83.70
2867;DHT22;1441;48.886;8.728;2023-03-23T06:08:35;13.70;84.50
2867;DHT22;1441;48.886;8.728;2023-03-23T06:11:02;13.60;85.90
2867;DHT22;1441;48.886;8.728;2023-03-23T06:13:28;13.70;85.10
2867;DHT22;1441;48.886;8.728;2023-03-23T06:15:57;13.60;87.00
2867;DHT22;1441;48.886;8.728;2023-03-23T06:18:23;13.70;87.90
2867;DHT22;1441;48.886;8.728;2023-03-23T06:20:49;13.60;88.00
2867;DHT22;1441;48.886;8.728;2023-03-23T06:23:16;13.70;88.50
2867;DHT22;1441;48.886;8.728;2023-03-23T06:25:43;13.70;88.40
2867;DHT22;1441;48.886;8.728;2023-03-23T06:28:09;13.60;89.10
2867;DHT22;1441;48.886;8.728;2023-03-23T06:30:35;13.50;89.70
2867;DHT22;1441;48.886;8.728;2023-03-23T06:33:01;13.40;90.20
2867;DHT22;1441;48.886;8.728;2023-03-23T06:35:31;13.40;89.90
2867;DHT22;1441;48.886;8.728;2023-03-23T06:37:56;13.60;88.90
2867;DHT22;1441;48.886;8.728;2023-03-23T06:40:27;13.70;89.00
2867;DHT22;1441;48.886;8.728;2023-03-23T06:42:53;13.90;88.70
2867;DHT22;1441;48.886;8.728;2023-03-23T06:45:18;14.00;89.30
2867;DHT22;1441;48.886;8.728;2023-03-23T06:47:45;14.10;89.20
2867;DHT22;1441;48.886;8.728;2023-03-23T06:50:14;14.10;89.30
2867;DHT22;1441;48.886;8.728;2023-03-23T06:52:40;14.00;90.30
2867;DHT22;1441;48.886;8.728;2023-03-23T06:55:06;13.90;90.80
2867;DHT22;1441;48.886;8.728;2023-03-23T06:57:32;13.70;90.20
2867;DHT22;1441;48.886;8.728;2023-03-23T06:59:58;13.60;90.70
2867;DHT22;1441;48.886;8.728;2023-03-23T07:02:23;13.50;90.00
2867;DHT22;1441;48.886;8.728;2023-03-23T07:04:49;13.50;90.30
2867;DHT22;1441;48.886;8.728;2023-03-23T07:07:15;13.40;90.30
2867;DHT22;1441;48.886;8.728;2023-03-23T07:09:44;13.50;90.20
2867;DHT22;1441;48.886;8.728;2023-03-23T07:12:09;13.50;89.00
2867;DHT22;1441;48.886;8.728;2023-03-23T07:14:35;13.50;89.10
2867;DHT22;1441;48.886;8.728;2023-03-23T07:17:02;13.40;89.90
2867;DHT22;1441;48.886;8.728;2023-03-23T07:19:28;13.40;89.90
2867;DHT22;1441;48.886;8.728;2023-03-23T07:21:54;13.40;90.00
2867;DHT22;1441;48.886;8.728;2023-03-23T07:24:19;13.40;90.50
2867;DHT22;1441;48.886;8.728;2023-03-23T07:26:45;13.30;90.60
2867;DHT22;1441;48.886;8.728;2023-03-23T07:29:11;13.30;91.30
2867;DHT22;1441;48.886;8.728;2023-03-23T07:31:36;13.30;91.70
2867;DHT22;1441;48.886;8.728;2023-03-23T07:34:02;13.30;91.40
2867;DHT22;1441;48.886;8.728;2023-03-23T07:36:29;13.30;91.80
2867;DHT22;1441;48.886;8.728;2023-03-23T07:38:54;13.20;92.70
2867;DHT22;1441;48.886;8.728;2023-03-23T07:41:20;13.30;92.10
2867;DHT22;1441;48.886;8.728;2023-03-23T07:43:46;13.30;92.40
2867;DHT22;1441;48.886;8.728;2023-03-23T07:46:12;13.40;93.00
2867;DHT22;1441;48.886;8.728;2023-03-23T07:48:39;13.40;93.50
2867;DHT22;1441;48.886;8.728;2023-03-23T07:51:05;13.30;93.70
2867;DHT22;1441;48.886;8.728;2023-03-23T07:53:32;13.20;94.70
2867;DHT22;1441;48.886;8.728;2023-03-23T07:55:58;13.20;95.20
2867;DHT22;1441;48.886;8.728;2023-03-23T07:58:24;13.20;95.70
2867;DHT22;1441;48.886;8.728;2023-03-23T08:00:52;13.10;95.10
2867;DHT22;1441;48.886;8.728;2023-03-23T08:03:18;13.10;95.90
2867;DHT22;1441;48.886;8.728;2023-03-23T08:05:44;13.10;95.80
2867;DHT22;1441;48.886;8.728;2023-03-23T08:08:09;13.20;96.40
2867;DHT22;1441;48.886;8.728;2023-03-23T08:10:36;13.50;95.80
2867;DHT22;1441;48.886;8.728;2023-03-23T08:13:02;13.30;95.30
2867;DHT22;1441;48.886;8.728;2023-03-23T08:15:28;13.30;96.00
2867;DHT22;1441;48.886;8.728;2023-03-23T08:17:54;13.20;96.10
2867;DHT22;1441;48.886;8.728;2023-03-23T08:20:20;13.30;95.70
2867;DHT22;1441;48.886;8.728;2023-03-23T08:22:53;13.20;95.70
2867;DHT22;1441;48.886;8.728;2023-03-23T08:25:20;13.10;95.60
2867;DHT22;1441;48.886;8.728;2023-03-23T08:27:46;13.10;95.70
2867;DHT22;1441;48.886;8.728;2023-03-23T08:30:15;13.10;95.60
2867;DHT22;1441;48.886;8.728;2023-03-23T08:32:41;13.10;95.40
2867;DHT22;1441;48.886;8.728;2023-03-23T08:35:08;13.10;94.40
2867;DHT22;1441;48.886;8.728;2023-03-23T08:37:35;13.10;94.90
2867;DHT22;1441;48.886;8.728;2023-03-23T08:40:01;13.10;94.20
2867;DHT22;1441;48.886;8.728;2023-03-23T08:42:32;13.20;94.00
2867;DHT22;1441;48.886;8.728;2023-03-23T08:44:58;13.20;93.80
2867;DHT22;1441;48.886;8.728;2023-03-23T08:47:24;13.20;92.60
2867;DHT22;1441;48.886;8.728;2023-03-23T08:49:51;13.20;92.70
2867;DHT22;1441;48.886;8.728;2023-03-23T08:52:19;13.30;92.80
2867;DHT22;1441;48.886;8.728;2023-03-23T08:54:45;13.40;92.30
2867;DHT22;1441;48.886;8.728;2023-03-23T08:57:13;13.50;91.80
2867;DHT22;1441;48.886;8.728;2023-03-23T08:59:40;13.50;92.10
2867;DHT22;1441;48.886;8.728;2023-03-23T09:02:08;13.50;91.20
2867;DHT22;1441;48.886;8.728;2023-03-23T09:04:34;13.50;90.80
2867;DHT22;1441;48.886;8.728;2023-03-23T09:06:59;13.50;91.60
2867;DHT22;1441;48.886;8.728;2023-03-23T09:09:25;13.40;93.20
2867;DHT22;1441;48.886;8.728;2023-03-23T09:11:53;13.30;94.20
2867;DHT22;1441;48.886;8.728;2023-03-23T09:14:18;13.40;94.50
2867;DHT22;1441;48.886;8.728;2023-03-23T09:16:44;13.30;95.30
2867;DHT22;1441;48.886;8.728;2023-03-23T09:19:10;13.20;96.20
2867;DHT22;1441;48.886;8.728;2023-03-23T09:21:36;13.10;97.10
2867;DHT22;1441;48.886;8.728;2023-03-23T09:24:02;13.10;97.10
2867;DHT22;1441;48.886;8.728;2023-03-23T09:26:28;13.10;97.20
2867;DHT22;1441;48.886;8.728;2023-03-23T09:28:54;13.10;97.70
2867;DHT22;1441;48.886;8.728;2023-03-23T09:31:22;13.20;98.10
2867;DHT22;1441;48.886;8.728;2023-03-23T09:33:48;13.40;98.10
2867;DHT22;1441;48.886;8.728;2023-03-23T09:36:20;13.50;96.90
2867;DHT22;1441;48.886;8.728;2023-03-23T09:38:50;13.40;96.50
2867;DHT22;1441;48.886;8.728;2023-03-23T09:49:17;13.40;97.50
2867;DHT22;1441;48.886;8.728;2023-03-23T09:51:59;13.50;98.30
2867;DHT22;1441;48.886;8.728;2023-03-23T09:54:29;13.40;98.20
2867;DHT22;1441;48.886;8.728;2023-03-23T09:56:57;13.40;98.50
2867;DHT22;1441;48.886;8.728;2023-03-23T09:59:39;13.50;99.30
2867;DHT22;1441;48.886;8.728;2023-03-23T10:02:28;13.50;99.90
2867;DHT22;1441;48.886;8.728;2023-03-23T10:07:40;13.50;99.90
2867;DHT22;1441;48.886;8.728;2023-03-23T10:10:12;13.70;99.90
2867;DHT22;1441;48.886;8.728;2023-03-23T10:12:52;14.20;99.90
2867;DHT22;1441;48.886;8.728;2023-03-23T10:15:26;14.50;99.10
2867;DHT22;1441;48.886;8.728;2023-03-23T10:20:48;14.60;97.40
2867;DHT22;1441;48.886;8.728;2023-03-23T10:29:28;14.50;97.40
2867;DHT22;1441;48.886;8.728;2023-03-23T10:31:59;14.40;97.70
2867;DHT22;1441;48.886;8.728;2023-03-23T10:34:42;14.30;98.60
2867;DHT22;1441;48.886;8.728;2023-03-23T10:39:54;14.30;98.10
2867;DHT22;1441;48.886;8.728;2023-03-23T10:42:35;14.40;98.70
2867;DHT22;1441;48.886;8.728;2023-03-23T10:45:20;14.60;98.10
2867;DHT22;1441;48.886;8.728;2023-03-23T10:51:03;14.90;97.00
2867;DHT22;1441;48.886;8.728;2023-03-23T10:53:39;15.20;96.30
2867;DHT22;1441;48.886;8.728;2023-03-23T10:56:22;15.30;95.50
2867;DHT22;1441;48.886;8.728;2023-03-23T10:58:48;15.50;95.80
2867;DHT22;1441;48.886;8.728;2023-03-23T11:01:13;15.50;95.50
2867;DHT22;1441;48.886;8.728;2023-03-23T11:03:45;15.40;94.90
2867;DHT22;1441;48.886;8.728;2023-03-23T11:06:33;15.30;95.00
2867;DHT22;1441;48.886;8.728;2023-03-23T11:09:13;15.20;94.60
2867;DHT22;1441;48.886;8.728;2023-03-23T11:11:41;15.00;94.60
2867;DHT22;1441;48.886;8.728;2023-03-23T11:14:34;15.00;95.00
2867;DHT22;1441;48.886;8.728;2023-03-23T11:17:05;15.10;95.00
2867;DHT22;1441;48.886;8.728;2023-03-23T11:19:36;15.20;94.50
2867;DHT22;1441;48.886;8.728;2023-03-23T11:22:28;15.20;94.40
2867;DHT22;1441;48.886;8.728;2023-03-23T11:24:56;15.40;94.50
2867;DHT22;1441;48.886;8.728;2023-03-23T11:27:24;15.30;94.50
2867;DHT22;1441;48.886;8.728;2023-03-23T11:29:58;15.40;94.10
2867;DHT22;1441;48.886;8.728;2023-03-23T11:32:28;15.40;94.40
2867;DHT22;1441;48.886;8.728;2023-03-23T11:34:58;15.30;93.90
2867;DHT22;1441;48.886;8.728;2023-03-23T11:37:39;15.20;93.90
2867;DHT22;1441;48.886;8.728;2023-03-23T11:45:35;15.00;94.30
2867;DHT22;1441;48.886;8.728;2023-03-23T11:56:42;14.90;96.50
2867;DHT22;1441;48.886;8.728;2023-03-23T11:59:11;14.90;96.30
2867;DHT22;1441;48.886;8.728;2023-03-23T12:07:10;14.80;97.10
2867;DHT22;1441;48.886;8.728;2023-03-23T12:10:08;14.90;96.80
2867;DHT22;1441;48.886;8.728;2023-03-23T12:21:11;15.60;93.90
2867;DHT22;1441;48.886;8.728;2023-03-23T12:26:18;15.80;92.30
2867;DHT22;1441;48.886;8.728;2023-03-23T12:28:49;15.60;92.30
2867;DHT22;1441;48.886;8.728;2023-03-23T12:42:39;15.30;93.60
2867;DHT22;1441;48.886;8.728;2023-03-23T12:45:21;15.40;93.80
2867;DHT22;1441;48.886;8.728;2023-03-23T12:47:53;15.50;93.20
2867;DHT22;1441;48.886;8.728;2023-03-23T12:56:37;15.40;94.00
2867;DHT22;1441;48.886;8.728;2023-03-23T12:59:29;15.50;93.50
2867;DHT22;1441;48.886;8.728;2023-03-23T13:02:05;15.40;92.70
2867;DHT22;1441;48.886;8.728;2023-03-23T13:04:42;15.40;93.00
2867;DHT22;1441;48.886;8.728;2023-03-23T13:07:16;15.50;92.80
2867;DHT22;1441;48.886;8.728;2023-03-23T13:09:58;15.50;92.50
2867;DHT22;1441;48.886;8.728;2023-03-23T13:12:25;15.60;91.90
2867;DHT22;1441;48.886;8.728;2023-03-23T13:15:21;15.60;92.00
2867;DHT22;1441;48.886;8.728;2023-03-23T13:18:16;15.70;92.00
2867;DHT22;1441;48.886;8.728;2023-03-23T13:21:11;15.70;92.00
2867;DHT22;1441;48.886;8.728;2023-03-23T13:23:42;15.60;91.40
2867;DHT22;1441;48.886;8.728;2023-03-23T13:26:12;15.70;91.90
2867;DHT22;1441;48.886;8.728;2023-03-23T13:31:25;15.70;90.90
2867;DHT22;1441;48.886;8.728;2023-03-23T13:34:45;15.70;90.70
2867;DHT22;1441;48.886;8.728;2023-03-23T13:36:57;15.70;90.70
2867;DHT22;1441;48.886;8.728;2023-03-23T13:39:32;15.90;90.00
2867;DHT22;1441;48.886;8.728;2023-03-23T13:45:18;15.90;90.50
2867;DHT22;1441;48.886;8.728;2023-03-23T13:47:46;15.80;90.80
2867;DHT22;1441;48.886;8.728;2023-03-23T13:52:56;15.70;90.90
2867;DHT22;1441;48.886;8.728;2023-03-23T14:03:25;16.00;89.10
2867;DHT22;1441;48.886;8.728;2023-03-23T14:08:36;16.50;86.90
2867;DHT22;1441;48.886;8.728;2023-03-23T14:11:22;16.30;88.50
2867;DHT22;1441;48.886;8.728;2023-03-23T14:14:14;16.30;88.30
2867;DHT22;1441;48.886;8.728;2023-03-23T14:16:41;16.30;88.00
2867;DHT22;1441;48.886;8.728;2023-03-23T14:19:21;16.30;88.90
2867;DHT22;1441;48.886;8.728;2023-03-23T14:21:55;16.30;89.10
2867;DHT22;1441;48.886;8.728;2023-03-23T14:24:41;16.30;88.80
2867;DHT22;1441;48.886;8.728;2023-03-23T14:27:19;16.30;89.20
2867;DHT22;1441;48.886;8.728;2023-03-23T14:30:01;16.20;89.40
2867;DHT22;1441;48.886;8.728;2023-03-23T14:32:28;16.20;89.20
2867;DHT22;1441;48.886;8.728;2023-03-23T14:34:56;16.20;89.50
2867;DHT22;1441;48.886;8.728;2023-03-23T14:37:23;16.30;88.90
2867;DHT22;1441;48.886;8.728;2023-03-23T14:39:51;16.30;89.20
2867;DHT22;1441;48.886;8.728;2023-03-23T14:42:21;16.30;88.90
2867;DHT22;1441;48.886;8.728;2023-03-23T14:44:48;16.30;89.10
2867;DHT22;1441;48.886;8.728;2023-03-23T14:47:25;16.30;88.60
2867;DHT22;1441;48.886;8.728;2023-03-23T14:49:54;16.30;88.30
2867;DHT22;1441;48.886;8.728;2023-03-23T14:52:22;16.30;88.20
2867;DHT22;1441;48.886;8.728;2023-03-23T14:54:48;16.30;88.70
2867;DHT22;1441;48.886;8.728;2023-03-23T14:57:17;16.30;88.40
2867;DHT22;1441;48.886;8.728;2023-03-23T14:59:45;16.30;88.40
2867;DHT22;1441;48.886;8.728;2023-03-23T15:02:23;16.20;88.60
2867;DHT22;1441;48.886;8.728;2023-03-23T15:04:59;16.20;88.90
2867;DHT22;1441;48.886;8.728;2023-03-23T15:07:35;16.10;89.20
2867;DHT22;1441;48.886;8.728;2023-03-23T15:10:05;16.10;89.60
2867;DHT22;1441;48.886;8.728;2023-03-23T15:12:31;16.10;89.10
2867;DHT22;1441;48.886;8.728;2023-03-23T15:14:59;16.10;89.00
2867;DHT22;1441;48.886;8.728;2023-03-23T15:17:28;16.00;89.10
2867;DHT22;1441;48.886;8.728;2023-03-23T15:19:55;15.90;89.40
2867;DHT22;1441;48.886;8.728;2023-03-23T15:22:29;15.90;89.20
2867;DHT22;1441;48.886;8.728;2023-03-23T15:27:34;15.90;89.50
2867;DHT22;1441;48.886;8.728;2023-03-23T15:32:51;15.90;88.10
2867;DHT22;1441;48.886;8.728;2023-03-23T15:35:20;15.90;89.00
2867;DHT22;1441;48.886;8.728;2023-03-23T15:37:49;15.80;89.40
2867;DHT22;1441;48.886;8.728;2023-03-23T15:40:21;15.80;89.30
2867;DHT22;1441;48.886;8.728;2023-03-23T15:42:48;15.80;89.50
2867;DHT22;1441;48.886;8.728;2023-03-23T15:52:34;15.70;91.20
2867;DHT22;1441;48.886;8.728;2023-03-23T15:55:00;15.60;90.30
2867;DHT22;1441;48.886;8.728;2023-03-23T15:57:25;15.80;89.30
2867;DHT22;1441;48.886;8.728;2023-03-23T15:59:51;16.10;88.00
2867;DHT22;1441;48.886;8.728;2023-03-23T16:02:22;16.20;87.10
2867;DHT22;1441;48.886;8.728;2023-03-23T16:04:49;16.20;87.40
2867;DHT22;1441;48.886;8.728;2023-03-23T16:07:17;16.00;87.70
2867;DHT22;1441;48.886;8.728;2023-03-23T16:09:44;15.80;90.40
2867;DHT22;1441;48.886;8.728;2023-03-23T16:12:12;16.00;88.50
2867;DHT22;1441;48.886;8.728;2023-03-23T16:14:39;16.20;87.40
2867;DHT22;1441;48.886;8.728;2023-03-23T16:17:05;16.20;86.90
2867;DHT22;1441;48.886;8.728;2023-03-23T16:19:34;16.00;89.10
2867;DHT22;1441;48.886;8.728;2023-03-23T16:22:00;15.90;88.70
2867;DHT22;1441;48.886;8.728;2023-03-23T16:24:26;16.10;87.30
2867;DHT22;1441;48.886;8.728;2023-03-23T16:26:51;16.00;87.90
2867;DHT22;1441;48.886;8.728;2023-03-23T16:29:17;16.00;88.50
2867;DHT22;1441;48.886;8.728;2023-03-23T16:31:42;16.20;87.30
2867;DHT22;1441;48.886;8.728;2023-03-23T16:34:08;16.10;87.20
2867;DHT22;1441;48.886;8.728;2023-03-23T16:36:34;16.10;87.40
2867;DHT22;1441;48.886;8.728;2023-03-23T16:38:59;16.20;87.10
2867;DHT22;1441;48.886;8.728;2023-03-23T16:41:25;16.00;87.90
2867;DHT22;1441;48.886;8.728;2023-03-23T16:43:51;15.80;89.80
2867;DHT22;1441;48.886;8.728;2023-03-23T16:46:16;15.70;89.80
2867;DHT22;1441;48.886;8.728;2023-03-23T16:48:42;15.70;88.50
2867;DHT22;1441;48.886;8.728;2023-03-23T16:51:08;15.90;87.70
2867;DHT22;1441;48.886;8.728;2023-03-23T16:53:35;16.00;87.40
2867;DHT22;1441;48.886;8.728;2023-03-23T16:56:01;16.10;87.60
2867;DHT22;1441;48.886;8.728;2023-03-23T16:58:27;16.10;87.10
2867;DHT22;1441;48.886;8.728;2023-03-23T17:00:52;16.10;87.30
2867;DHT22;1441;48.886;8.728;2023-03-23T17:03:19;16.00;86.60
2867;DHT22;1441;48.886;8.728;2023-03-23T17:05:50;15.90;87.20
2867;DHT22;1441;48.886;8.728;2023-03-23T17:08:17;16.00;87.10
2867;DHT22;1441;48.886;8.728;2023-03-23T17:10:44;15.90;87.10
2867;DHT22;1441;48.886;8.728;2023-03-23T17:13:10;15.80;87.90
2867;DHT22;1441;48.886;8.728;2023-03-23T17:15:37;15.70;88.30
2867;DHT22;1441;48.886;8.728;2023-03-23T17:18:04;15.70;88.50
2867;DHT22;1441;48.886;8.728;2023-03-23T17:20:30;15.60;89.10
2867;DHT22;1441;48.886;8.728;2023-03-23T17:22:56;15.60;89.20
2867;DHT22;1441;48.886;8.728;2023-03-23T17:25:24;15.60;89.10
2867;DHT22;1441;48.886;8.728;2023-03-23T17:27:50;15.60;89.20
2867;DHT22;1441;48.886;8.728;2023-03-23T17:30:16;15.60;89.40
2867;DHT22;1441;48.886;8.728;2023-03-23T17:32:42;15.50;89.80
2867;DHT22;1441;48.886;8.728;2023-03-23T17:35:07;15.50;89.10
2867;DHT22;1441;48.886;8.728;2023-03-23T17:37:34;15.40;87.90
2867;DHT22;1441;48.886;8.728;2023-03-23T17:40:00;15.50;86.50
2867;DHT22;1441;48.886;8.728;2023-03-23T17:42:28;15.60;84.00
2867;DHT22;1441;48.886;8.728;2023-03-23T17:44:53;15.60;83.20
2867;DHT22;1441;48.886;8.728;2023-03-23T17:47:19;15.60;80.10
2867;DHT22;1441;48.886;8.728;2023-03-23T17:49:45;15.50;80.10
2867;DHT22;1441;48.886;8.728;2023-03-23T17:52:11;15.50;79.00
2867;DHT22;1441;48.886;8.728;2023-03-23T17:54:36;15.60;79.00
2867;DHT22;1441;48.886;8.728;2023-03-23T17:57:03;15.50;78.80
2867;DHT22;1441;48.886;8.728;2023-03-23T17:59:29;15.60;78.60
2867;DHT22;1441;48.886;8.728;2023-03-23T18:01:55;15.50;79.50
2867;DHT22;1441;48.886;8.728;2023-03-23T18:04:21;15.50;78.30
2867;DHT22;1441;48.886;8.728;2023-03-23T18:06:47;15.60;78.90
2867;DHT22;1441;48.886;8.728;2023-03-23T18:09:13;15.60;77.90
2867;DHT22;1441;48.886;8.728;2023-03-23T18:11:39;15.60;77.50
2867;DHT22;1441;48.886;8.728;2023-03-23T18:14:05;15.70;77.10
2867;DHT22;1441;48.886;8.728;2023-03-23T18:16:34;15.70;77.80
2867;DHT22;1441;48.886;8.728;2023-03-23T18:18:59;15.60;77.00
2867;DHT22;1441;48.886;8.728;2023-03-23T18:21:25;15.60;76.80
2867;DHT22;1441;48.886;8.728;2023-03-23T18:23:51;15.70;76.80
2867;DHT22;1441;48.886;8.728;2023-03-23T18:26:17;15.60;76.90